Time;durP1;ratioP1;P1;durP2;ratioP2;P2;SDS_P1;SDS_P2;PMS_P1;PMS_P2;Temp;Humidity;BMP_temperature;BMP_pressure;BME280_temperature;BME280_humidity;BME280_pressure;Samples;Min_cycle;Max_cycle;Signal;HPM_P1;HPM_P2
2022/09/22 00:00:16;;;;;;;2.13;1.98;;;7.40;99.90;;;;;;4999257;28;89966;-33
2022/09/22 00:02:42;;;;;;;6.90;1.88;;;7.30;99.90;;;;;;4999518;28;89808;-32
2022/09/22 00:05:08;;;;;;;3.65;2.72;;;7.30;99.90;;;;;;4999226;28;88061;-31
2022/09/22 00:07:33;;;;;;;2.30;2.03;;;7.30;99.90;;;;;;4988141;28;88774;-30
2022/09/22 00:09:59;;;;;;;3.08;1.92;;;7.20;99.90;;;;;;4994785;28;90657;-29
2022/09/22 00:12:25;;;;;;;1.98;1.85;;;7.20;99.90;;;;;;4999349;28;90425;-30
2022/09/22 00:14:52;;;;;;;2.67;2.10;;;7.10;99.90;;;;;;4985473;28;90014;-30
2022/09/22 00:17:17;;;;;;;3.55;2.10;;;7.10;99.90;;;;;;4997914;28;89908;-33
2022/09/22 00:19:43;;;;;;;3.40;2.20;;;7.00;99.90;;;;;;4999104;28;88666;-33
2022/09/22 00:22:09;;;;;;;1.70;1.60;;;7.00;99.90;;;;;;4998642;28;89539;-33
2022/09/22 00:24:34;;;;;;;2.33;1.92;;;7.00;99.90;;;;;;4998978;28;88318;-31
2022/09/22 00:27:00;;;;;;;2.63;2.42;;;7.00;99.90;;;;;;4998556;28;91792;-33
2022/09/22 00:29:28;;;;;;;3.78;2.10;;;7.00;99.90;;;;;;4998628;28;89635;-30
2022/09/22 00:31:54;;;;;;;2.30;2.10;;;7.10;99.90;;;;;;5001802;28;90161;-30
2022/09/22 00:34:23;;;;;;;8.00;2.58;;;7.10;99.90;;;;;;5002124;28;90344;-32
2022/09/22 00:36:49;;;;;;;3.10;2.33;;;7.20;99.90;;;;;;5002882;28;90585;-30
2022/09/22 00:39:16;;;;;;;8.40;2.72;;;7.20;99.90;;;;;;5002021;28;89209;-32
2022/09/22 00:41:45;;;;;;;4.88;3.20;;;7.20;99.90;;;;;;5002605;28;89412;-34
2022/09/22 00:44:19;;;;;;;3.25;2.45;;;7.30;99.90;;;;;;5039367;22;88497;-32
2022/09/22 00:46:50;;;;;;;3.53;2.33;;;7.20;99.90;;;;;;5002104;28;89749;-30
2022/09/22 00:49:16;;;;;;;3.47;2.67;;;7.30;99.90;;;;;;5001615;28;89702;-33
2022/09/22 00:51:43;;;;;;;6.82;1.92;;;7.30;99.90;;;;;;5002492;28;89756;-34
2022/09/22 00:54:17;;;;;;;3.10;2.80;;;7.30;99.90;;;;;;5002801;28;87881;-30
2022/09/22 00:56:51;;;;;;;3.10;2.58;;;7.40;99.90;;;;;;5001799;28;89167;-35
2022/09/22 00:59:20;;;;;;;4.05;2.05;;;7.40;99.90;;;;;;5001049;28;90814;-31
2022/09/22 01:01:45;;;;;;;4.07;2.42;;;7.40;99.90;;;;;;5001567;28;90678;-33
2022/09/22 01:04:11;;;;;;;4.00;2.58;;;7.40;99.90;;;;;;5002396;28;90323;-31
2022/09/22 01:06:39;;;;;;;5.00;2.75;;;7.30;99.90;;;;;;5001759;28;88768;-29
2022/09/22 01:09:05;;;;;;;2.50;2.10;;;7.30;99.90;;;;;;5001320;28;89441;-33
2022/09/22 01:11:32;;;;;;;2.83;2.60;;;7.30;99.90;;;;;;5000982;28;89972;-36
2022/09/22 01:14:07;;;;;;;2.22;2.03;;;7.30;99.90;;;;;;5002092;28;87521;-31
2022/09/22 01:16:41;;;;;;;2.45;2.25;;;7.20;99.90;;;;;;5001236;28;90079;-29
2022/09/22 01:19:36;;;;;;;7.47;3.15;;;7.20;99.90;;;;;;5002196;28;89532;-31
2022/09/22 01:22:16;;;;;;;2.78;2.58;;;7.10;99.90;;;;;;5000935;28;89797;-33
2022/09/22 01:25:11;;;;;;;5.18;2.65;;;7.10;99.90;;;;;;5002236;28;90000;-31
2022/09/22 01:28:06;;;;;;;5.80;2.47;;;7.00;99.90;;;;;;4974334;28;90850;-31
2022/09/22 01:30:35;;;;;;;1.90;1.80;;;7.00;99.90;;;;;;5000221;28;89676;-33
2022/09/22 01:33:26;;;;;;;7.78;2.65;;;6.90;99.90;;;;;;5001246;28;89262;-31
2022/09/22 01:36:09;;;;;;;5.32;2.60;;;6.90;99.90;;;;;;5001249;28;89892;-32
2022/09/22 01:39:03;;;;;;;8.40;2.50;;;6.90;99.90;;;;;;5001180;28;90644;-30
2022/09/22 01:41:41;;;;;;;8.38;2.75;;;6.90;99.90;;;;;;5000445;28;89737;-33
2022/09/22 01:44:13;;;;;;;3.03;2.72;;;6.90;99.90;;;;;;5000520;28;88926;-30
2022/09/22 01:46:50;;;;;;;2.33;2.13;;;6.80;99.90;;;;;;5001437;28;89157;-32
2022/09/22 01:49:18;;;;;;;3.28;2.30;;;6.80;99.90;;;;;;5000345;28;89190;-32
2022/09/22 01:51:48;;;;;;;5.72;2.47;;;6.80;99.90;;;;;;5000265;28;90792;-32
2022/09/22 01:54:22;;;;;;;2.10;2.00;;;6.70;99.90;;;;;;5001168;28;89787;-30
2022/09/22 01:56:55;;;;;;;2.88;2.45;;;6.70;99.90;;;;;;5001531;28;89405;-30
2022/09/22 01:59:25;;;;;;;2.35;2.15;;;6.70;99.90;;;;;;5000942;28;89427;-30
2022/09/22 02:02:01;;;;;;;2.45;2.25;;;6.70;99.90;;;;;;5001229;28;89662;-30
2022/09/22 02:04:37;;;;;;;9.45;2.25;;;6.70;99.90;;;;;;4998122;28;90263;-31
2022/09/22 02:07:09;;;;;;;3.63;2.15;;;6.70;99.90;;;;;;5000567;28;88974;-31
2022/09/22 02:09:38;;;;;;;3.00;2.50;;;6.70;99.90;;;;;;5001023;28;90690;-32
2022/09/22 02:12:04;;;;;;;5.10;2.60;;;6.70;99.90;;;;;;5001307;28;89799;-33
2022/09/22 02:14:30;;;;;;;3.20;2.35;;;6.70;99.90;;;;;;5000110;28;90203;-29
2022/09/22 02:16:57;;;;;;;3.60;2.22;;;6.60;99.90;;;;;;5000733;28;88969;-31
2022/09/22 02:19:35;;;;;;;4.32;1.83;;;6.60;99.90;;;;;;5000117;28;90232;-30
2022/09/22 02:22:02;;;;;;;3.35;2.15;;;6.60;99.90;;;;;;5000515;28;90094;-32
2022/09/22 02:24:31;;;;;;;4.00;1.67;;;6.60;99.90;;;;;;4999877;28;89720;-29
2022/09/22 02:26:58;;;;;;;3.22;2.00;;;6.60;99.90;;;;;;4999966;28;88701;-32
2022/09/22 02:29:27;;;;;;;3.35;1.92;;;6.50;99.90;;;;;;4999986;28;90104;-31
2022/09/22 02:31:55;;;;;;;7.25;2.22;;;6.50;99.90;;;;;;5000417;28;89947;-31
2022/09/22 02:34:21;;;;;;;4.30;2.43;;;6.50;99.90;;;;;;5000970;28;90188;-28
2022/09/22 02:36:57;;;;;;;2.63;2.25;;;6.50;99.90;;;;;;5000633;28;89379;-29
2022/09/22 02:39:45;;;;;;;7.35;2.83;;;6.60;99.90;;;;;;5000239;28;90242;-34
2022/09/22 02:42:46;;;;;;;4.03;2.97;;;6.60;99.90;;;;;;4988834;28;91766;-31
2022/09/22 02:45:23;;;;;;;4.90;3.28;;;6.60;99.90;;;;;;4999961;28;89548;-33
2022/09/22 02:48:03;;;;;;;4.50;3.23;;;6.60;99.90;;;;;;5000789;28;88319;-30
2022/09/22 02:50:30;;;;;;;9.70;3.25;;;6.60;99.90;;;;;;4986133;28;91351;-31
2022/09/22 02:53:01;;;;;;;5.05;3.55;;;6.60;99.90;;;;;;4999599;28;89921;-30
2022/09/22 02:55:27;;;;;;;9.38;3.70;;;6.60;99.90;;;;;;4999846;28;89818;-31
2022/09/22 02:57:53;;;;;;;4.22;2.20;;;6.60;99.90;;;;;;5000355;28;88707;-30
2022/09/22 03:00:19;;;;;;;5.55;3.10;;;6.60;99.90;;;;;;4981741;28;89632;-31
2022/09/22 03:02:45;;;;;;;5.30;3.35;;;6.60;99.90;;;;;;4999866;28;90609;-30
2022/09/22 03:05:11;;;;;;;4.38;3.65;;;6.50;99.90;;;;;;4999127;28;89452;-30
2022/09/22 03:07:37;;;;;;;5.38;3.45;;;6.50;99.90;;;;;;4999555;28;89336;-30
2022/09/22 03:10:03;;;;;;;6.93;4.03;;;6.50;99.90;;;;;;5000862;28;88954;-29
2022/09/22 03:12:29;;;;;;;4.40;3.85;;;6.50;99.90;;;;;;4964740;28;89342;-28
2022/09/22 03:14:55;;;;;;;3.78;3.13;;;6.40;99.90;;;;;;5000013;28;88966;-28
2022/09/22 03:17:20;;;;;;;8.55;4.50;;;6.40;99.90;;;;;;4999512;28;88942;-31
2022/09/22 03:19:46;;;;;;;7.28;4.00;;;6.40;99.90;;;;;;4999938;28;90083;-29
2022/09/22 03:22:11;;;;;;;4.75;3.83;;;6.40;99.90;;;;;;4999874;28;89751;-35
2022/09/22 03:24:37;;;;;;;7.10;3.88;;;6.40;99.90;;;;;;4999612;28;89370;-29
2022/09/22 03:27:02;;;;;;;8.52;4.70;;;6.40;99.90;;;;;;4999913;28;88711;-29
2022/09/22 03:29:28;;;;;;;6.32;4.60;;;6.40;99.90;;;;;;4998685;28;89750;-30
2022/09/22 03:31:54;;;;;;;7.22;5.05;;;6.40;99.90;;;;;;4999737;28;90721;-29
2022/09/22 03:34:19;;;;;;;6.32;4.78;;;6.40;99.90;;;;;;4999308;28;90983;-31
2022/09/22 03:36:45;;;;;;;7.03;4.50;;;6.40;99.90;;;;;;4999981;28;87980;-31
2022/09/22 03:39:10;;;;;;;13.80;5.10;;;6.40;99.90;;;;;;4999333;28;90229;-29
2022/09/22 03:41:36;;;;;;;5.95;5.38;;;6.50;99.90;;;;;;4999075;28;89726;-30
2022/09/22 03:44:03;;;;;;;6.40;5.53;;;6.50;99.90;;;;;;4999920;28;88820;-31
2022/09/22 03:46:29;;;;;;;8.35;6.25;;;6.50;99.90;;;;;;4999264;28;87720;-30
2022/09/22 03:48:55;;;;;;;8.05;6.43;;;6.50;99.90;;;;;;4999520;28;89828;-30
2022/09/22 03:51:21;;;;;;;8.27;7.60;;;6.50;99.90;;;;;;4999275;28;90206;-32
2022/09/22 03:53:47;;;;;;;8.90;7.53;;;6.60;99.90;;;;;;4998914;28;89618;-31
2022/09/22 03:56:14;;;;;;;7.60;6.63;;;6.60;99.90;;;;;;4999079;28;89083;-29
2022/09/22 03:58:40;;;;;;;8.68;7.30;;;6.60;99.90;;;;;;4999476;28;89481;-32
2022/09/22 04:01:07;;;;;;;8.73;7.20;;;6.60;99.90;;;;;;4998754;28;90279;-29
2022/09/22 04:03:33;;;;;;;17.67;7.32;;;6.60;99.90;;;;;;4998572;28;89389;-33
2022/09/22 04:06:00;;;;;;;11.30;8.57;;;6.60;99.90;;;;;;4999259;28;89811;-29
2022/09/22 04:08:26;;;;;;;10.27;8.63;;;6.60;99.90;;;;;;4998146;28;90443;-32
2022/09/22 04:10:52;;;;;;;11.45;8.93;;;6.60;99.90;;;;;;4998967;28;89638;-30
2022/09/22 04:13:18;;;;;;;9.77;8.88;;;6.60;99.90;;;;;;4998579;28;89666;-31
2022/09/22 04:15:45;;;;;;;9.70;8.88;;;6.60;99.90;;;;;;4998971;28;88502;-31
2022/09/22 04:18:14;;;;;;;15.20;8.75;;;6.60;99.90;;;;;;4998825;28;89027;-29
2022/09/22 04:20:42;;;;;;;10.80;8.65;;;6.60;99.90;;;;;;4998431;28;90192;-34
2022/09/22 04:23:12;;;;;;;17.00;8.30;;;6.50;99.90;;;;;;4998678;28;90113;-29
2022/09/22 04:25:38;;;;;;;10.13;8.75;;;6.50;99.90;;;;;;4999359;28;89424;-28
2022/09/22 04:28:05;;;;;;;10.80;8.13;;;6.50;99.90;;;;;;4998562;28;89976;-30
2022/09/22 04:30:31;;;;;;;9.00;8.18;;;6.50;99.90;;;;;;4998087;28;90251;-31
2022/09/22 04:32:58;;;;;;;13.70;9.25;;;6.50;99.90;;;;;;4998958;28;89452;-30
2022/09/22 04:35:25;;;;;;;12.70;11.45;;;6.50;99.90;;;;;;4998445;28;89276;-29
2022/09/22 04:37:52;;;;;;;12.13;10.88;;;6.50;99.90;;;;;;4997999;28;89652;-34
2022/09/22 04:40:17;;;;;;;11.20;10.05;;;6.50;99.90;;;;;;4997733;28;89398;-29
2022/09/22 04:42:45;;;;;;;15.75;8.88;;;6.50;99.90;;;;;;4997349;28;89183;-29
2022/09/22 04:45:10;;;;;;;11.25;10.13;;;6.50;99.90;;;;;;4997929;28;90173;-33
2022/09/22 04:47:36;;;;;;;15.63;10.48;;;6.50;99.90;;;;;;4997869;28;90032;-29
2022/09/22 04:50:02;;;;;;;12.30;9.55;;;6.50;99.90;;;;;;4997362;28;89769;-30
2022/09/22 04:52:27;;;;;;;11.55;10.35;;;6.40;99.90;;;;;;4998231;28;89553;-33
2022/09/22 04:54:53;;;;;;;14.15;12.20;;;6.40;99.90;;;;;;4998036;28;88823;-31
2022/09/22 04:57:18;;;;;;;13.27;10.38;;;6.40;99.90;;;;;;4996912;28;90629;-31
2022/09/22 04:59:44;;;;;;;12.75;11.20;;;6.40;99.90;;;;;;4997640;28;90556;-31
2022/09/22 05:02:10;;;;;;;14.15;10.05;;;6.40;99.90;;;;;;4976359;28;89519;-30
2022/09/22 05:04:35;;;;;;;15.85;14.23;;;6.30;99.90;;;;;;4991230;28;89184;-28
2022/09/22 05:07:01;;;;;;;14.60;13.20;;;6.40;99.90;;;;;;4996685;28;90741;-28
2022/09/22 05:09:27;;;;;;;13.18;11.88;;;6.30;99.90;;;;;;4996373;28;90700;-33
2022/09/22 05:11:53;;;;;;;14.30;12.93;;;6.30;99.90;;;;;;4996795;28;91028;-32
2022/09/22 05:14:19;;;;;;;12.95;11.70;;;6.30;99.90;;;;;;4997490;28;89113;-30
2022/09/22 05:16:44;;;;;;;13.73;12.38;;;6.30;99.90;;;;;;4998998;28;90477;-30
2022/09/22 05:19:10;;;;;;;13.32;11.90;;;6.30;99.90;;;;;;5001745;28;89421;-29
2022/09/22 05:21:36;;;;;;;15.23;13.27;;;6.30;99.90;;;;;;5001366;28;89470;-30
2022/09/22 05:24:02;;;;;;;14.80;13.38;;;6.30;99.90;;;;;;4982676;28;88746;-32
2022/09/22 05:26:29;;;;;;;15.52;13.70;;;6.20;99.90;;;;;;5000952;28;89074;-29
2022/09/22 05:28:56;;;;;;;20.20;14.10;;;6.20;99.90;;;;;;5001000;28;90094;-28
2022/09/22 05:31:22;;;;;;;17.73;14.73;;;6.20;99.90;;;;;;5000316;28;89909;-30
2022/09/22 05:33:49;;;;;;;16.20;14.52;;;6.20;99.90;;;;;;4999955;28;90073;-32
2022/09/22 05:36:14;;;;;;;15.55;13.55;;;6.20;99.90;;;;;;5000848;28;89126;-30
2022/09/22 05:38:40;;;;;;;18.30;16.08;;;6.20;99.90;;;;;;5000142;28;90184;-31
2022/09/22 05:41:06;;;;;;;22.20;15.40;;;6.30;99.90;;;;;;5001035;28;89985;-33
2022/09/22 05:43:31;;;;;;;15.95;14.45;;;6.20;99.90;;;;;;4999605;28;89291;-30
2022/09/22 05:45:57;;;;;;;15.85;14.27;;;6.30;99.90;;;;;;5000269;28;90217;-32
2022/09/22 05:48:23;;;;;;;16.70;14.95;;;6.30;99.90;;;;;;5000353;28;88562;-32
2022/09/22 05:50:48;;;;;;;14.93;13.45;;;6.30;99.90;;;;;;5000429;28;88883;-30
2022/09/22 05:53:14;;;;;;;18.17;16.35;;;6.30;99.90;;;;;;5000301;28;90014;-28
2022/09/22 05:55:40;;;;;;;18.60;16.90;;;6.30;99.90;;;;;;5000495;28;91412;-32
2022/09/22 05:58:08;;;;;;;16.52;14.93;;;6.30;99.90;;;;;;4999244;28;90919;-30
2022/09/22 06:00:34;;;;;;;17.10;15.27;;;6.40;99.90;;;;;;5000306;28;89765;-29
2022/09/22 06:02:59;;;;;;;16.55;14.25;;;6.40;99.90;;;;;;5000514;28;88039;-29
2022/09/22 06:05:25;;;;;;;18.02;16.02;;;6.40;99.90;;;;;;5000236;28;90819;-29
2022/09/22 06:08:02;;;;;;;18.00;15.35;;;6.40;99.90;;;;;;5000320;28;89281;-32
2022/09/22 06:10:34;;;;;;;16.83;15.23;;;6.50;99.90;;;;;;4999402;28;91155;-33
2022/09/22 06:13:01;;;;;;;21.13;15.75;;;6.50;99.90;;;;;;5000437;28;88121;-30
2022/09/22 06:15:27;;;;;;;19.07;17.10;;;6.50;99.90;;;;;;4999771;28;89689;-32
2022/09/22 06:17:54;;;;;;;19.45;16.95;;;6.60;99.90;;;;;;4999750;28;89664;-30
2022/09/22 06:20:19;;;;;;;18.95;16.98;;;6.60;99.90;;;;;;5000167;28;89853;-28
2022/09/22 06:22:45;;;;;;;23.92;16.00;;;6.70;99.90;;;;;;4999127;28;88950;-29
2022/09/22 06:25:11;;;;;;;16.67;14.95;;;6.70;99.90;;;;;;4999287;28;90356;-32
2022/09/22 06:27:36;;;;;;;16.55;14.98;;;6.70;99.90;;;;;;4985149;28;89572;-33
2022/09/22 06:30:03;;;;;;;17.58;14.93;;;6.80;99.90;;;;;;4997763;28;90005;-30
2022/09/22 06:32:29;;;;;;;17.27;15.48;;;6.90;99.90;;;;;;4994362;28;89342;-29
2022/09/22 06:34:54;;;;;;;22.65;16.80;;;6.90;99.90;;;;;;4999089;28;90420;-28
2022/09/22 06:37:22;;;;;;;20.38;18.33;;;7.00;99.90;;;;;;4999540;28;90071;-33
2022/09/22 06:39:47;;;;;;;21.15;18.08;;;7.10;99.90;;;;;;4999767;28;89237;-29
2022/09/22 06:42:15;;;;;;;19.35;17.52;;;7.10;99.90;;;;;;4998497;28;89033;-30
2022/09/22 06:44:43;;;;;;;22.52;17.70;;;7.10;99.90;;;;;;4998870;28;90048;-32
2022/09/22 06:47:11;;;;;;;19.50;17.52;;;7.20;99.90;;;;;;4971032;28;90831;-31
2022/09/22 06:49:37;;;;;;;20.65;18.55;;;7.30;99.90;;;;;;4999731;28;91541;-30
2022/09/22 06:52:02;;;;;;;23.85;19.85;;;7.30;99.90;;;;;;4998009;28;88343;-29
2022/09/22 06:54:28;;;;;;;22.15;19.42;;;7.40;99.90;;;;;;4998001;28;89552;-32
2022/09/22 06:56:54;;;;;;;22.20;18.58;;;7.50;99.90;;;;;;4998562;28;90057;-28
2022/09/22 06:59:20;;;;;;;23.77;18.63;;;7.60;99.90;;;;;;4998400;28;90024;-33
2022/09/22 07:01:45;;;;;;;21.73;19.45;;;7.60;99.90;;;;;;4999245;28;89399;-30
2022/09/22 07:04:11;;;;;;;30.48;20.20;;;7.80;99.90;;;;;;4999439;28;90511;-30
2022/09/22 07:06:39;;;;;;;26.00;22.42;;;7.90;99.90;;;;;;4999238;28;90019;-30
2022/09/22 07:09:05;;;;;;;24.38;21.70;;;8.00;99.90;;;;;;4998657;28;89403;-32
2022/09/22 07:11:31;;;;;;;23.73;21.02;;;8.10;99.90;;;;;;4997511;28;89355;-30
2022/09/22 07:13:57;;;;;;;26.40;21.27;;;8.30;99.90;;;;;;4999479;28;90264;-28
2022/09/22 07:16:25;;;;;;;27.73;22.55;;;8.40;99.90;;;;;;4995693;28;88238;-34
2022/09/22 07:18:57;;;;;;;23.33;18.30;;;8.50;99.90;;;;;;4982059;28;89448;-31
2022/09/22 07:21:34;;;;;;;26.35;20.15;;;8.70;99.90;;;;;;4986347;28;89120;-31
2022/09/22 07:23:59;;;;;;;31.55;22.35;;;8.80;99.90;;;;;;4998647;28;89755;-30
2022/09/22 07:26:32;;;;;;;30.02;23.40;;;9.00;99.90;;;;;;4998639;28;89130;-30
2022/09/22 07:29:00;;;;;;;26.70;20.85;;;9.20;99.90;;;;;;4998505;28;89988;-32
2022/09/22 07:31:28;;;;;;;27.85;20.05;;;9.30;99.90;;;;;;4998538;28;88992;-34
2022/09/22 07:33:54;;;;;;;29.55;21.05;;;9.50;99.90;;;;;;4980033;28;91843;-31
2022/09/22 07:36:27;;;;;;;26.00;18.27;;;9.60;99.90;;;;;;4997261;28;90675;-29
2022/09/22 07:38:56;;;;;;;24.10;19.92;;;9.80;99.90;;;;;;4998588;28;90708;-31
2022/09/22 07:41:22;;;;;;;;;;;10.00;99.90;;;;;;4999444;28;88029;-29
2022/09/22 07:43:50;;;;;;;29.30;18.00;;;10.20;99.90;;;;;;4999248;28;90075;-32
2022/09/22 07:46:16;;;;;;;22.17;17.98;;;10.30;99.90;;;;;;4995395;28;90361;-31
2022/09/22 07:51:09;;;;;;;22.02;19.55;;;10.60;99.90;;;;;;4996694;28;90005;-30
2022/09/22 07:53:36;;;;;;;19.83;17.70;;;10.80;99.90;;;;;;4984887;28;89671;-33
2022/09/22 07:56:12;;;;;;;24.35;18.95;;;10.90;99.90;;;;;;4998671;28;91222;-30
2022/09/22 07:58:45;;;;;;;20.38;18.20;;;11.00;99.90;;;;;;4997441;28;89428;-30
2022/09/22 08:01:11;;;;;;;23.58;16.38;;;11.10;99.90;;;;;;4997760;28;89217;-31
2022/09/22 08:03:38;;;;;;;18.48;14.88;;;11.30;99.90;;;;;;4998020;28;90221;-32
2022/09/22 08:06:11;;;;;;;22.13;15.32;;;11.50;99.90;;;;;;4998149;28;88447;-30
2022/09/22 08:08:38;;;;;;;19.60;15.52;;;11.70;99.90;;;;;;4998226;28;89172;-32
2022/09/22 08:11:17;;;;;;;25.13;15.80;;;11.80;99.90;;;;;;4997871;28;89083;-29
2022/09/22 08:14:05;;;;;;;23.27;13.48;;;12.00;99.90;;;;;;4997584;28;90507;-31
2022/09/22 08:16:33;;;;;;;17.80;14.87;;;12.20;99.90;;;;;;4997792;28;88823;-29
2022/09/22 08:19:09;;;;;;;17.90;14.05;;;12.40;99.90;;;;;;4998207;28;89814;-32
2022/09/22 08:21:35;;;;;;;13.32;12.02;;;12.50;99.90;;;;;;4998264;28;87645;-30
2022/09/22 08:24:06;;;;;;;16.73;13.75;;;12.70;99.90;;;;;;4997808;28;90212;-33
2022/09/22 08:26:35;;;;;;;14.90;13.45;;;12.90;99.90;;;;;;4997356;28;89447;-29
2022/09/22 08:29:02;;;;;;;14.30;12.25;;;13.00;99.90;;;;;;4997728;28;90119;-32
2022/09/22 08:31:27;;;;;;;13.95;11.23;;;13.20;99.90;;;;;;4997973;28;89497;-32
2022/09/22 08:33:54;;;;;;;13.57;12.18;;;13.40;99.90;;;;;;4997531;28;90415;-33
2022/09/22 08:36:22;;;;;;;16.65;11.23;;;13.50;99.90;;;;;;4997168;28;90044;-33
2022/09/22 08:38:48;;;;;;;13.17;11.37;;;13.60;99.90;;;;;;4998357;28;89933;-30
2022/09/22 08:41:37;;;;;;;13.18;10.25;;;13.70;99.90;;;;;;4998747;28;89406;-31
2022/09/22 08:44:05;;;;;;;11.98;10.70;;;13.90;99.90;;;;;;4997931;28;89947;-31
2022/09/22 08:46:35;;;;;;;11.65;10.50;;;14.00;99.90;;;;;;4998049;28;89564;-30
2022/09/22 08:52:33;;;;;;;16.33;8.07;;;14.20;99.90;;;;;;4923757;28;89838;-33
2022/09/22 08:55:00;;;;;;;9.60;8.13;;;14.40;99.90;;;;;;4999923;28;90111;-33
2022/09/22 08:57:40;;;;;;;8.48;7.57;;;14.50;99.90;;;;;;4984092;28;90582;-32
2022/09/22 09:00:17;;;;;;;15.20;7.80;;;14.60;99.90;;;;;;5002041;28;88834;-31
2022/09/22 09:03:04;;;;;;;9.13;6.13;;;14.70;99.90;;;;;;5002819;28;88849;-29
2022/09/22 09:06:08;;;;;;;8.57;7.65;;;14.80;99.90;;;;;;4988863;28;89282;-30
2022/09/22 09:08:49;;;;;;;8.75;6.93;;;14.90;99.90;;;;;;5000892;28;88813;-29
2022/09/22 09:11:43;;;;;;;9.25;7.70;;;15.00;99.90;;;;;;5001997;28;89093;-32
2022/09/22 09:14:20;;;;;;;9.18;8.23;;;15.10;99.90;;;;;;5000729;28;89698;-30
2022/09/22 09:17:06;;;;;;;5.45;4.95;;;15.20;99.90;;;;;;5002119;28;89878;-31
2022/09/22 09:19:42;;;;;;;5.43;4.95;;;15.30;99.90;;;;;;5001134;28;90635;-34
2022/09/22 09:22:14;;;;;;;6.97;4.88;;;15.40;99.90;;;;;;5000969;28;89579;-31
2022/09/22 09:24:48;;;;;;;11.13;5.15;;;15.50;99.90;;;;;;5002302;28;88777;-31
2022/09/22 09:27:20;;;;;;;7.35;4.25;;;15.60;99.90;;;;;;5001582;28;88913;-31
2022/09/22 09:30:05;;;;;;;4.55;3.97;;;15.70;99.90;;;;;;5001376;28;89851;-31
2022/09/22 09:32:40;;;;;;;5.05;4.22;;;15.70;99.90;;;;;;5000733;28;88757;-34
2022/09/22 09:35:15;;;;;;;7.93;3.45;;;15.80;99.90;;;;;;4983176;28;87702;-30
2022/09/22 09:37:46;;;;;;;4.70;4.25;;;15.90;99.90;;;;;;5001507;28;90167;-34
2022/09/22 09:40:18;;;;;;;5.38;3.60;;;16.00;99.90;;;;;;5001177;28;89095;-31
2022/09/22 09:42:55;;;;;;;4.18;2.90;;;16.10;99.90;;;;;;5001145;28;89401;-32
2022/09/22 09:45:27;;;;;;;3.90;3.35;;;16.20;99.90;;;;;;4999972;28;89858;-30
2022/09/22 09:48:04;;;;;;;4.57;3.65;;;16.20;99.90;;;;;;5001654;28;90263;-32
2022/09/22 09:50:30;;;;;;;4.63;3.00;;;16.40;99.90;;;;;;5000637;28;90093;-30
2022/09/22 09:52:59;;;;;;;7.40;3.30;;;16.40;99.90;;;;;;5002345;28;90089;-32
2022/09/22 09:55:25;;;;;;;4.57;3.63;;;16.50;99.90;;;;;;5001390;28;88766;-30
2022/09/22 09:58:10;;;;;;;4.35;2.88;;;16.50;99.90;;;;;;5000838;28;90060;-32
2022/09/22 10:00:57;;;;;;;3.42;2.55;;;16.60;99.90;;;;;;5000934;28;90416;-32
2022/09/22 10:03:27;;;;;;;3.65;3.35;;;16.70;99.90;;;;;;5000969;28;89387;-33
2022/09/22 10:06:01;;;;;;;11.68;3.65;;;16.70;99.90;;;;;;5001358;28;88780;-34
2022/09/22 10:08:30;;;;;;;6.40;3.17;;;16.80;99.90;;;;;;5001084;28;89286;-31
2022/09/22 10:10:58;;;;;;;3.42;2.88;;;17.00;99.90;;;;;;5000483;28;90750;-32
2022/09/22 10:13:34;;;;;;;6.20;2.87;;;17.00;99.90;;;;;;5000775;28;90430;-31
2022/09/22 10:16:14;;;;;;;3.33;3.00;;;17.10;99.90;;;;;;5001036;28;89102;-33
2022/09/22 10:18:40;;;;;;;3.35;2.60;;;17.20;99.90;;;;;;5001306;28;91041;-31
2022/09/22 10:21:30;;;;;;;8.55;2.85;;;17.20;99.90;;;;;;5001037;28;89388;-32
2022/09/22 10:23:58;;;;;;;3.00;2.80;;;17.20;99.90;;;;;;5000656;28;89787;-31
2022/09/22 10:26:29;;;;;;;7.43;4.10;;;17.30;99.90;;;;;;5001182;28;89083;-30
2022/09/22 10:29:23;;;;;;;5.43;3.53;;;17.30;99.90;;;;;;4999809;28;90304;-30
2022/09/22 10:32:00;;;;;;;6.68;3.63;;;17.30;99.90;;;;;;4998988;28;89700;-31
2022/09/22 10:34:37;;;;;;;6.63;4.38;;;17.30;99.90;;;;;;4999513;28;88955;-30
2022/09/22 10:37:10;;;;;;;5.18;2.88;;;17.30;99.90;;;;;;5000134;28;90074;-32
2022/09/22 10:39:48;;;;;;;7.78;4.35;;;17.30;99.90;;;;;;4999194;28;89835;-33
2022/09/22 10:42:36;;;;;;;4.93;3.90;;;17.40;99.90;;;;;;4991911;28;89543;-32
2022/09/22 10:45:04;;;;;;;9.27;3.72;;;17.40;99.90;;;;;;4981500;28;90487;-29
2022/09/22 10:47:39;;;;;;;;;;;17.30;99.90;;;;;;5000691;28;89666;-34
2022/09/22 10:50:17;;;;;;;5.20;3.30;;;17.30;99.90;;;;;;4997228;28;88765;-31
2022/09/22 10:52:57;;;;;;;13.10;5.40;;;17.40;99.90;;;;;;4997016;28;90033;-33
2022/09/22 10:55:33;;;;;;;5.20;4.45;;;17.50;99.90;;;;;;4990607;28;89833;-31
2022/09/22 10:58:07;;;;;;;4.43;4.03;;;17.40;99.90;;;;;;4998426;28;89304;-31
2022/09/22 11:00:40;;;;;;;7.75;4.68;;;17.40;99.90;;;;;;4997633;28;89551;-31
2022/09/22 11:03:51;;;;;;;7.57;4.03;;;17.40;99.90;;;;;;4996215;28;91174;-31
2022/09/22 11:13:10;;;;;;;6.22;4.40;;;17.50;99.90;;;;;;4990592;28;91132;-32
2022/09/22 11:15:53;;;;;;;4.22;3.90;;;17.70;99.90;;;;;;4996395;28;90811;-33
2022/09/22 11:18:18;;;;;;;4.35;4.05;;;17.80;99.90;;;;;;4997930;28;89629;-32
2022/09/22 11:20:45;;;;;;;4.95;3.90;;;17.90;99.90;;;;;;4997837;28;88968;-32
2022/09/22 11:23:30;;;;;;;6.53;5.50;;;18.00;99.90;;;;;;4997716;28;90503;-35
2022/09/22 11:26:14;;;;;;;6.80;4.72;;;18.20;99.50;;;;;;4998216;28;90056;-31
2022/09/22 11:29:08;;;;;;;9.15;5.85;;;18.20;97.60;;;;;;4997245;28;89567;-33
2022/09/22 11:32:11;;;;;;;6.90;4.72;;;18.20;87.50;;;;;;4985779;28;90287;-30
2022/09/22 11:34:55;;;;;;;8.52;5.60;;;18.00;99.90;;;;;;4996544;28;90377;-30
2022/09/22 11:37:42;;;;;;;5.18;4.68;;;18.10;99.90;;;;;;4997219;28;89992;-34
2022/09/22 11:40:21;;;;;;;10.95;5.50;;;18.00;99.90;;;;;;4985854;28;89264;-31
2022/09/22 11:42:57;;;;;;;5.00;4.53;;;18.00;99.50;;;;;;4997754;28;89227;-32
2022/09/22 11:45:47;;;;;;;8.10;4.60;;;18.10;99.90;;;;;;4997848;28;90637;-31
2022/09/22 11:48:43;;;;;;;6.75;4.90;;;18.20;97.10;;;;;;4996936;28;90669;-30
2022/09/22 11:51:46;;;;;;;4.65;3.88;;;18.20;97.10;;;;;;4997476;28;90057;-32
2022/09/22 11:54:50;;;;;;;5.25;4.55;;;18.20;99.90;;;;;;4996840;28;88395;-34
2022/09/22 11:57:23;;;;;;;5.50;4.95;;;18.30;99.90;;;;;;4986712;28;89932;-33
2022/09/22 12:00:10;;;;;;;6.45;4.88;;;18.20;99.90;;;;;;4995837;28;90205;-34
2022/09/22 12:02:53;;;;;;;5.95;5.20;;;18.20;99.90;;;;;;4996933;28;90510;-34
2022/09/22 12:05:26;;;;;;;7.35;4.47;;;18.00;99.90;;;;;;4996924;28;89286;-31
2022/09/22 12:08:01;;;;;;;6.30;4.63;;;17.90;99.90;;;;;;4997338;28;90351;-32
2022/09/22 12:10:39;;;;;;;8.68;5.05;;;17.80;99.90;;;;;;4996350;28;89740;-33
2022/09/22 12:13:15;;;;;;;5.78;4.97;;;17.90;99.90;;;;;;4996806;28;89456;-32
2022/09/22 12:15:57;;;;;;;4.43;4.13;;;18.00;99.90;;;;;;4996835;28;90104;-33
2022/09/22 12:18:47;;;;;;;7.70;5.82;;;18.10;99.90;;;;;;4986276;28;90153;-31
2022/09/22 12:21:46;;;;;;;5.13;4.70;;;18.10;99.90;;;;;;4985093;28;89979;-32
2022/09/22 12:24:12;;;;;;;6.10;5.43;;;18.30;99.90;;;;;;4992868;28;90095;-31
2022/09/22 12:26:40;;;;;;;18.67;5.63;;;18.30;99.90;;;;;;4982847;28;89598;-29
2022/09/22 12:29:26;;;;;;;;;;;18.30;99.90;;;;;;5003142;28;89324;-32
2022/09/22 12:31:55;;;;;;;5.88;5.28;;;18.30;99.90;;;;;;5003848;28;89202;-31
2022/09/22 12:34:38;;;;;;;9.57;5.38;;;18.20;99.90;;;;;;5002730;28;89239;-34
2022/09/22 12:37:11;;;;;;;6.63;6.03;;;18.00;99.90;;;;;;4994933;28;89433;-34
2022/09/22 12:39:41;;;;;;;6.10;5.03;;;17.80;99.90;;;;;;5002306;28;89065;-33
2022/09/22 12:42:21;;;;;;;7.30;4.28;;;17.90;99.90;;;;;;4992515;28;91295;-33
2022/09/22 12:44:57;;;;;;;5.40;4.97;;;18.00;99.90;;;;;;5026272;22;89487;-32
2022/09/22 12:47:38;;;;;;;6.20;5.63;;;18.10;99.90;;;;;;4983126;28;89384;-31
2022/09/22 12:50:26;;;;;;;6.07;5.15;;;18.20;99.90;;;;;;4983401;28;88983;-33
2022/09/22 12:52:53;;;;;;;5.65;4.82;;;18.20;99.90;;;;;;4974106;28;90895;-32
2022/09/22 12:55:27;;;;;;;5.85;4.88;;;18.10;99.90;;;;;;4982378;28;90323;-32
2022/09/22 12:57:59;;;;;;;5.53;4.55;;;18.00;99.90;;;;;;4983254;28;90049;-32
2022/09/22 13:00:39;;;;;;;9.32;5.85;;;18.10;99.90;;;;;;4982482;28;90396;-32
2022/09/22 13:03:24;;;;;;;6.38;5.75;;;18.30;99.90;;;;;;4982275;28;89990;-31
2022/09/22 13:05:54;;;;;;;5.53;5.03;;;18.40;99.20;;;;;;4972874;28;90474;-32
2022/09/22 13:08:29;;;;;;;5.60;5.05;;;18.50;96.20;;;;;;4983197;28;89181;-30
2022/09/22 13:11:01;;;;;;;14.65;5.50;;;18.50;99.90;;;;;;4981930;28;90396;-31
2022/09/22 13:13:37;;;;;;;10.52;5.95;;;18.50;99.90;;;;;;4983336;28;91348;-33
2022/09/22 13:16:04;;;;;;;5.85;4.20;;;18.40;99.90;;;;;;4968633;28;89484;-32
2022/09/22 13:18:33;;;;;;;6.15;5.28;;;18.30;99.90;;;;;;4981605;28;90136;-34
2022/09/22 13:21:10;;;;;;;10.02;5.38;;;18.30;99.90;;;;;;4982166;28;89783;-33